createdAt,value
2023-05-17T00:01:03.649Z,9.56
2023-05-17T00:04:06.439Z,9.52
2023-05-17T00:07:08.989Z,9.44
2023-05-17T00:10:13.152Z,9.39
2023-05-17T00:13:15.662Z,9.25
2023-05-17T00:16:18.234Z,9.20
2023-05-17T00:19:21.017Z,9.14
2023-05-17T00:22:23.833Z,9.10
2023-05-17T00:25:27.872Z,9.01
2023-05-17T00:28:30.855Z,8.89
2023-05-17T00:31:33.556Z,8.78
2023-05-17T00:34:36.231Z,8.76
2023-05-17T00:37:39.222Z,8.77
2023-05-17T00:40:43.594Z,8.76
2023-05-17T00:43:46.247Z,8.80
2023-05-17T00:46:50.520Z,8.72
2023-05-17T00:49:53.288Z,8.71
2023-05-17T00:52:56.704Z,8.74
2023-05-17T00:56:01.019Z,8.71
2023-05-17T00:59:06.356Z,8.75
2023-05-17T01:02:09.370Z,8.74
2023-05-17T01:05:12.313Z,8.79
2023-05-17T01:08:15.069Z,8.77
2023-05-17T01:11:27.934Z,8.78
2023-05-17T01:14:40.041Z,8.83
2023-05-17T01:17:53.621Z,8.87
2023-05-17T01:20:59.815Z,8.88
2023-05-17T01:24:14.708Z,8.85
2023-05-17T01:27:19.988Z,8.78
2023-05-17T01:30:23.354Z,8.78
2023-05-17T01:33:26.912Z,8.77
2023-05-17T01:36:29.757Z,8.72
2023-05-17T01:39:32.431Z,8.75
2023-05-17T01:42:40.190Z,8.77
2023-05-17T01:45:45.371Z,8.77
2023-05-17T01:48:53.791Z,8.81
2023-05-17T01:51:59.312Z,8.82
2023-05-17T01:55:06.630Z,8.77
2023-05-17T01:58:12.049Z,8.75
2023-05-17T02:01:15.901Z,8.74
2023-05-17T02:04:19.906Z,8.69
2023-05-17T02:07:23.013Z,8.70
2023-05-17T02:10:26.122Z,8.66
2023-05-17T02:13:30.103Z,8.63
2023-05-17T02:16:32.680Z,8.66
2023-05-17T02:19:35.594Z,8.62
2023-05-17T02:22:38.947Z,8.58
2023-05-17T02:25:41.673Z,8.54
2023-05-17T02:28:45.636Z,8.51
2023-05-17T02:31:48.398Z,8.48
2023-05-17T02:34:50.982Z,8.36
2023-05-17T02:37:53.632Z,8.32
2023-05-17T02:40:56.273Z,8.28
2023-05-17T02:44:00.464Z,8.17
2023-05-17T02:47:03.107Z,8.11
2023-05-17T02:50:06.662Z,8.09
2023-05-17T02:53:09.633Z,8.07
2023-05-17T02:56:12.835Z,8.00
2023-05-17T02:59:16.920Z,7.92
2023-05-17T03:02:19.754Z,7.87
2023-05-17T03:05:22.516Z,7.80
2023-05-17T03:08:25.117Z,7.77
2023-05-17T03:11:27.907Z,7.73
2023-05-17T03:14:32.040Z,7.72
2023-05-17T03:17:34.715Z,7.74
2023-05-17T03:20:37.439Z,7.68
2023-05-17T03:23:40.093Z,7.64
2023-05-17T03:26:42.618Z,7.62
2023-05-17T03:29:47.235Z,7.59
2023-05-17T03:32:50.186Z,7.54
2023-05-17T03:35:53.016Z,7.52
2023-05-17T03:38:55.673Z,7.46
2023-05-17T03:41:58.814Z,7.47
2023-05-17T03:45:03.106Z,7.45
2023-05-17T03:48:06.424Z,7.48
2023-05-17T03:51:09.223Z,7.51
2023-05-17T03:54:12.266Z,7.51
2023-05-17T03:57:15.439Z,7.47
2023-05-17T04:00:21.950Z,7.52
2023-05-17T04:03:24.654Z,7.61
2023-05-17T04:06:27.273Z,7.67
2023-05-17T04:09:32.035Z,7.70
2023-05-17T04:12:35.165Z,7.70
2023-05-17T04:15:39.193Z,7.74
2023-05-17T04:18:42.087Z,7.78
2023-05-17T04:21:45.760Z,7.83
2023-05-17T04:24:48.411Z,7.87
2023-05-17T04:27:51.125Z,7.88
2023-05-17T04:30:55.196Z,8.05
2023-05-17T04:33:57.914Z,8.18
2023-05-17T04:37:00.639Z,8.24
2023-05-17T04:40:03.908Z,8.29
2023-05-17T04:43:06.655Z,8.41
2023-05-17T04:46:11.651Z,8.50
2023-05-17T04:49:14.256Z,8.66
2023-05-17T04:52:16.860Z,8.73
2023-05-17T04:55:19.500Z,8.90
2023-05-17T04:58:24.135Z,9.02
2023-05-17T05:01:29.559Z,9.17
2023-05-17T05:04:32.265Z,9.35
2023-05-17T05:07:35.032Z,9.55
2023-05-17T05:10:37.841Z,9.62
2023-05-17T05:13:41.792Z,9.77
2023-05-17T05:16:45.873Z,9.89
2023-05-17T05:19:48.678Z,9.95
2023-05-17T05:22:51.609Z,10.06
2023-05-17T05:25:54.230Z,10.18
2023-05-17T05:28:56.961Z,10.26
2023-05-17T05:32:01.092Z,10.47
2023-05-17T05:35:03.763Z,10.65
2023-05-17T05:38:06.400Z,10.83
2023-05-17T05:41:08.947Z,11.06
2023-05-17T05:44:11.675Z,11.05
2023-05-17T05:47:15.814Z,11.04
2023-05-17T05:50:18.394Z,11.13
2023-05-17T05:53:21.154Z,11.21
2023-05-17T05:56:25.662Z,11.30
2023-05-17T05:59:28.396Z,11.24
2023-05-17T06:02:32.519Z,11.20
2023-05-17T06:05:35.704Z,11.19
2023-05-17T06:08:38.309Z,11.19
2023-05-17T06:11:40.970Z,11.05
2023-05-17T06:14:43.633Z,10.90
2023-05-17T06:17:47.677Z,11.00
2023-05-17T06:20:50.377Z,11.06
2023-05-17T06:23:54.263Z,10.99
2023-05-17T06:26:56.908Z,11.07
2023-05-17T06:29:59.878Z,11.13
2023-05-17T06:33:06.454Z,11.12
2023-05-17T06:36:09.373Z,11.17
2023-05-17T06:39:12.096Z,11.36
2023-05-17T06:42:14.663Z,11.34
2023-05-17T06:45:17.221Z,11.47
2023-05-17T06:48:21.389Z,11.61
2023-05-17T06:51:24.411Z,11.91
2023-05-17T06:54:27.030Z,11.96
2023-05-17T06:57:29.690Z,12.10
2023-05-17T07:00:32.595Z,12.13
2023-05-17T07:03:37.156Z,12.24
2023-05-17T07:06:39.861Z,12.19
2023-05-17T07:09:42.734Z,12.39
2023-05-17T07:12:45.481Z,12.40
2023-05-17T07:15:48.190Z,12.64
2023-05-17T07:18:52.322Z,12.92
2023-05-17T07:21:55.377Z,13.05
2023-05-17T07:24:57.933Z,13.07
2023-05-17T07:28:00.654Z,13.46
2023-05-17T07:31:03.355Z,13.95
2023-05-17T07:34:07.452Z,14.02
2023-05-17T07:37:10.144Z,14.09
2023-05-17T07:40:13.641Z,14.15
2023-05-17T07:43:16.526Z,14.27
2023-05-17T07:46:19.362Z,14.71
2023-05-17T07:49:26.018Z,15.30
2023-05-17T07:52:28.625Z,15.17
2023-05-17T07:55:31.299Z,15.26
2023-05-17T07:58:34.012Z,15.67
2023-05-17T08:01:36.563Z,15.88
2023-05-17T08:04:41.981Z,15.95
2023-05-17T08:07:44.636Z,15.81
2023-05-17T08:10:47.218Z,15.71
2023-05-17T08:13:49.766Z,15.81
2023-05-17T08:16:52.569Z,15.66
2023-05-17T08:19:56.985Z,16.35
2023-05-17T08:22:59.763Z,16.72
2023-05-17T08:26:02.323Z,17.32
2023-05-17T08:29:05.631Z,16.74
2023-05-17T08:32:09.176Z,17.71
2023-05-17T08:35:13.212Z,17.30
2023-05-17T08:38:16.677Z,18.09
2023-05-17T08:41:21.496Z,17.06
2023-05-17T08:44:24.156Z,16.09
2023-05-17T08:47:33.973Z,15.68
2023-05-17T08:50:38.854Z,15.93
2023-05-17T08:53:42.682Z,15.93
2023-05-17T08:56:45.345Z,16.66
2023-05-17T08:59:48.757Z,17.10
2023-05-17T09:02:51.571Z,16.86
2023-05-17T09:05:55.740Z,17.10
2023-05-17T09:09:01.402Z,17.76
2023-05-17T09:12:04.393Z,18.08
2023-05-17T09:15:17.506Z,18.06
2023-05-17T09:18:20.253Z,18.19
2023-05-17T09:21:24.902Z,17.72
2023-05-17T09:24:31.526Z,17.97
2023-05-17T09:27:34.435Z,16.74
2023-05-17T09:30:39.447Z,15.95
2023-05-17T09:33:46.045Z,15.89
2023-05-17T09:36:50.067Z,16.64
2023-05-17T09:39:52.769Z,16.71
2023-05-17T09:42:56.182Z,17.48
2023-05-17T09:45:59.060Z,18.06
2023-05-17T09:49:03.287Z,18.08
2023-05-17T09:52:09.308Z,18.47
2023-05-17T09:55:13.065Z,18.32
2023-05-17T09:58:15.653Z,18.34
2023-05-17T10:01:18.586Z,17.86
2023-05-17T10:04:24.132Z,18.40
2023-05-17T10:07:28.141Z,18.95
2023-05-17T10:10:31.517Z,19.16
2023-05-17T10:13:36.436Z,18.55
2023-05-17T10:16:40.842Z,17.97
2023-05-17T10:19:44.499Z,17.68
2023-05-17T10:22:49.622Z,18.47
2023-05-17T10:25:52.755Z,19.12
2023-05-17T10:29:00.646Z,19.76
2023-05-17T10:32:05.957Z,20.35
2023-05-17T10:35:12.035Z,20.05
2023-05-17T10:38:16.401Z,19.78
2023-05-17T10:41:20.003Z,19.76
2023-05-17T10:44:23.371Z,20.51
2023-05-17T10:47:32.696Z,20.19
2023-05-17T10:50:43.047Z,21.15
2023-05-17T10:54:07.067Z,21.22
2023-05-17T10:57:09.847Z,20.66
2023-05-17T11:00:21.030Z,20.32
2023-05-17T11:03:28.755Z,19.91
2023-05-17T11:06:36.940Z,19.08
2023-05-17T11:09:41.742Z,18.80
2023-05-17T11:12:46.935Z,19.53
2023-05-17T11:16:04.145Z,19.93
2023-05-17T11:19:11.200Z,20.13
2023-05-17T11:22:16.880Z,20.20
2023-05-17T11:25:22.521Z,19.75
2023-05-17T11:28:25.236Z,19.64
2023-05-17T11:31:32.043Z,19.03
2023-05-17T11:34:35.178Z,18.78
2023-05-17T11:37:37.999Z,18.32
2023-05-17T11:40:42.362Z,17.55
2023-05-17T11:43:47.308Z,17.67
2023-05-17T11:46:50.375Z,17.79
2023-05-17T11:49:55.686Z,17.96
2023-05-17T11:53:00.169Z,18.05
2023-05-17T11:56:05.366Z,17.48
2023-05-17T11:59:07.992Z,17.61
2023-05-17T12:02:10.957Z,18.09
2023-05-17T12:05:20.884Z,18.34
2023-05-17T12:08:23.539Z,19.16
2023-05-17T12:11:27.855Z,19.37
2023-05-17T12:14:31.157Z,19.83
2023-05-17T12:17:38.605Z,20.29
2023-05-17T12:20:55.309Z,20.97
2023-05-17T12:23:57.951Z,20.69
2023-05-17T12:27:02.068Z,20.34
2023-05-17T12:30:15.780Z,20.33
2023-05-17T12:33:18.578Z,20.35
2023-05-17T12:36:22.496Z,21.81
2023-05-17T12:39:25.785Z,22.70
2023-05-17T12:42:29.934Z,21.84
2023-05-17T12:45:34.287Z,21.74
2023-05-17T12:48:37.215Z,22.89
2023-05-17T12:51:44.090Z,23.52
2023-05-17T12:54:47.603Z,23.18
2023-05-17T12:57:52.600Z,22.21
2023-05-17T13:00:59.972Z,21.99
2023-05-17T13:04:02.744Z,21.82
2023-05-17T13:07:06.588Z,21.22
2023-05-17T13:10:21.221Z,20.98
2023-05-17T13:13:25.344Z,21.01
2023-05-17T13:16:31.024Z,20.38
2023-05-17T13:19:35.813Z,21.24
2023-05-17T13:22:42.162Z,21.82
2023-05-17T13:25:44.859Z,22.55
2023-05-17T13:28:49.478Z,22.30
2023-05-17T13:31:52.533Z,21.81
2023-05-17T13:34:55.250Z,21.41
2023-05-17T13:37:58.124Z,21.79
2023-05-17T13:41:00.879Z,22.49
2023-05-17T13:44:04.965Z,22.92
2023-05-17T13:47:07.886Z,22.52
2023-05-17T13:50:12.099Z,22.71
2023-05-17T13:53:14.755Z,22.46
2023-05-17T13:56:17.315Z,22.59
2023-05-17T13:59:21.431Z,22.44
2023-05-17T14:02:24.184Z,23.28
2023-05-17T14:05:27.485Z,23.83
2023-05-17T14:08:29.967Z,24.30
2023-05-17T14:11:32.856Z,24.57
2023-05-17T14:14:36.790Z,24.69
2023-05-17T14:17:39.411Z,25.40
2023-05-17T14:20:42.004Z,25.50
2023-05-17T14:23:44.836Z,25.25
2023-05-17T14:26:47.521Z,24.98
2023-05-17T14:29:51.596Z,24.91
2023-05-17T14:32:54.387Z,24.91
2023-05-17T14:35:58.078Z,25.09
2023-05-17T14:39:00.680Z,24.28
2023-05-17T14:42:03.367Z,23.13
2023-05-17T14:45:09.015Z,22.49
2023-05-17T14:48:12.080Z,21.85
2023-05-17T14:51:14.731Z,21.41
2023-05-17T14:54:18.129Z,20.94
2023-05-17T14:57:21.520Z,20.73
2023-05-17T15:00:27.039Z,20.32
2023-05-17T15:03:29.715Z,19.78
2023-05-17T15:06:32.858Z,19.45
2023-05-17T15:09:41.350Z,18.96
2023-05-17T15:12:43.939Z,18.61
2023-05-17T15:15:48.353Z,17.69
2023-05-17T15:18:52.284Z,17.22
2023-05-17T15:21:56.854Z,17.34
2023-05-17T15:24:59.577Z,17.47
2023-05-17T15:28:02.204Z,17.60
2023-05-17T15:31:10.594Z,17.48
2023-05-17T15:34:13.498Z,17.46
2023-05-17T15:37:16.494Z,17.75
2023-05-17T15:40:21.515Z,18.06
2023-05-17T15:43:24.218Z,18.42
2023-05-17T15:46:28.217Z,19.14
2023-05-17T15:49:31.181Z,24.14
2023-05-17T15:52:33.864Z,26.06
2023-05-17T15:55:36.778Z,23.90
2023-05-17T15:58:39.465Z,22.53
2023-05-17T16:01:46.244Z,20.82
2023-05-17T16:04:48.999Z,20.12
2023-05-17T16:07:51.999Z,19.73
2023-05-17T16:10:54.691Z,21.74
2023-05-17T16:13:57.902Z,29.71
2023-05-17T16:17:05.659Z,33.74
2023-05-17T16:20:09.627Z,31.44
2023-05-17T16:23:12.844Z,26.89
2023-05-17T16:26:15.771Z,25.53
2023-05-17T16:29:18.588Z,23.81
2023-05-17T16:32:22.729Z,22.68
2023-05-17T16:35:25.615Z,23.01
2023-05-17T16:38:28.231Z,22.14
2023-05-17T16:41:33.413Z,22.88
2023-05-17T16:44:36.034Z,22.18
2023-05-17T16:47:40.044Z,26.97
2023-05-17T16:50:43.352Z,30.66
2023-05-17T16:53:45.903Z,32.69
2023-05-17T16:56:48.997Z,33.93
2023-05-17T16:59:52.102Z,32.88
2023-05-17T17:02:56.220Z,30.79
2023-05-17T17:05:59.073Z,28.19
2023-05-17T17:09:07.026Z,25.10
2023-05-17T17:12:23.663Z,23.68
2023-05-17T17:15:27.572Z,22.62
2023-05-17T17:18:31.866Z,21.86
2023-05-17T17:21:36.580Z,21.33
2023-05-17T17:24:39.552Z,20.79
2023-05-17T17:27:42.149Z,20.18
2023-05-17T17:30:44.801Z,20.06
2023-05-17T17:33:48.957Z,19.93
2023-05-17T17:36:51.561Z,20.24
2023-05-17T17:39:54.146Z,20.47
2023-05-17T17:42:56.960Z,20.34
2023-05-17T17:45:59.654Z,19.97
2023-05-17T17:49:04.186Z,19.55
2023-05-17T17:52:06.933Z,19.16
2023-05-17T17:55:12.940Z,18.72
2023-05-17T17:58:15.968Z,18.53
2023-05-17T18:01:18.761Z,18.32
2023-05-17T18:04:22.771Z,17.99
2023-05-17T18:07:26.990Z,17.80
2023-05-17T18:10:31.136Z,17.54
2023-05-17T18:13:33.947Z,17.31
2023-05-17T18:16:36.708Z,17.10
2023-05-17T18:19:40.956Z,16.86
2023-05-17T18:22:43.780Z,16.61
2023-05-17T18:25:46.973Z,16.39
2023-05-17T18:28:49.646Z,16.14
2023-05-17T18:31:53.033Z,15.88
2023-05-17T18:34:56.975Z,15.61
2023-05-17T18:38:00.713Z,15.41
2023-05-17T18:41:03.294Z,15.18
2023-05-17T18:44:06.426Z,15.00
2023-05-17T18:47:09.167Z,14.79
2023-05-17T18:50:13.207Z,14.60
2023-05-17T18:53:15.807Z,14.42
2023-05-17T18:56:22.780Z,14.18
2023-05-17T18:59:25.437Z,13.90
2023-05-17T19:02:28.574Z,13.76
2023-05-17T19:05:32.438Z,13.66
2023-05-17T19:08:35.934Z,13.47
2023-05-17T19:11:38.439Z,13.25
2023-05-17T19:14:41.250Z,13.10
2023-05-17T19:17:43.885Z,12.93
2023-05-17T19:20:47.981Z,12.81
2023-05-17T19:23:50.729Z,12.63
2023-05-17T19:26:53.634Z,12.50
2023-05-17T19:29:56.302Z,12.40
2023-05-17T19:32:58.864Z,12.28
2023-05-17T19:36:02.885Z,12.21
2023-05-17T19:39:05.605Z,12.03
2023-05-17T19:42:08.268Z,12.00
2023-05-17T19:45:11.839Z,11.97
2023-05-17T19:48:14.247Z,11.91
2023-05-17T19:51:18.161Z,11.80
2023-05-17T19:54:21.667Z,11.65
2023-05-17T19:57:24.237Z,11.61
2023-05-17T20:00:26.904Z,11.57
2023-05-17T20:03:29.598Z,11.52
2023-05-17T20:06:33.666Z,11.52
2023-05-17T20:09:36.478Z,11.51
2023-05-17T20:12:39.465Z,11.48
2023-05-17T20:15:42.317Z,11.42
2023-05-17T20:18:45.475Z,11.34
2023-05-17T20:21:49.550Z,11.25
2023-05-17T20:24:52.345Z,11.25
2023-05-17T20:27:57.990Z,11.19
2023-05-17T20:31:00.892Z,11.12
2023-05-17T20:34:04.336Z,11.04
2023-05-17T20:37:08.386Z,10.96
2023-05-17T20:40:11.740Z,10.94
2023-05-17T20:43:16.774Z,10.88
2023-05-17T20:46:19.643Z,10.82
2023-05-17T20:49:22.614Z,10.69
2023-05-17T20:55:32.356Z,10.44
2023-05-17T20:58:35.024Z,10.43
2023-05-17T21:01:37.737Z,10.44
2023-05-17T21:04:40.981Z,10.45
2023-05-17T21:07:46.618Z,10.44
2023-05-17T21:10:49.994Z,10.38
2023-05-17T21:13:52.563Z,10.34
2023-05-17T21:16:55.628Z,10.31
2023-05-17T21:19:58.234Z,10.22
2023-05-17T21:23:02.321Z,10.14
2023-05-17T21:26:06.943Z,10.07
2023-05-17T21:29:09.470Z,10.03
2023-05-17T21:32:12.161Z,9.94
2023-05-17T21:35:14.705Z,9.83
2023-05-17T21:38:18.793Z,9.75
2023-05-17T21:41:21.594Z,9.71
2023-05-17T21:44:24.434Z,9.67
2023-05-17T21:47:27.074Z,9.64
2023-05-17T21:50:30.850Z,9.59
2023-05-17T21:53:35.214Z,9.51
2023-05-17T21:56:37.838Z,9.47
2023-05-17T21:59:40.540Z,9.43
2023-05-17T22:02:44.935Z,9.37
2023-05-17T22:05:48.681Z,9.30
2023-05-17T22:08:52.582Z,9.32
2023-05-17T22:11:59.530Z,9.26
2023-05-17T22:15:02.318Z,9.21
2023-05-17T22:18:05.473Z,9.12
2023-05-17T22:21:08.916Z,9.01
2023-05-17T22:24:12.857Z,8.95
2023-05-17T22:27:15.462Z,8.98
2023-05-17T22:30:18.132Z,8.94
2023-05-17T22:33:21.852Z,8.97
2023-05-17T22:36:26.724Z,8.97
2023-05-17T22:39:30.838Z,8.91
2023-05-17T22:42:33.498Z,8.85
2023-05-17T22:45:36.168Z,8.78
2023-05-17T22:48:40.457Z,8.80
2023-05-17T22:51:43.289Z,8.76
2023-05-17T22:54:47.449Z,8.76
2023-05-17T22:57:50.076Z,8.73
2023-05-17T23:00:53.415Z,8.66
2023-05-17T23:03:56.502Z,8.58
2023-05-17T23:07:02.358Z,8.51
2023-05-17T23:10:08.584Z,8.47
2023-05-17T23:13:11.611Z,8.45
2023-05-17T23:16:14.694Z,8.45
2023-05-17T23:19:18.136Z,8.48
2023-05-17T23:22:20.970Z,8.46
2023-05-17T23:25:25.121Z,8.43
2023-05-17T23:28:27.840Z,8.36
2023-05-17T23:31:30.886Z,8.31
2023-05-17T23:34:33.502Z,8.26
2023-05-17T23:37:36.679Z,8.23
2023-05-17T23:40:40.958Z,8.20
2023-05-17T23:43:43.663Z,8.30
2023-05-17T23:46:46.303Z,8.47
2023-05-17T23:49:49.181Z,8.71
2023-05-17T23:52:51.845Z,8.82
2023-05-17T23:55:56.147Z,8.94
2023-05-17T23:58:58.803Z,9.04
